HRHO2: North Canadian River

Data processed at Sat Dec 09 2017 23:24


All information presented herein is the property of the government of the United States of America and may be revised or deleted at any time without prior notice.
Dissemination of this information without the expressed written consent of the Public Affairs Office, Tulsa District U.S. Army Corps of Engineers is strictly prohibited.
These data are gathered electronically and, as presented, have not undergone any form of quality control. These data are not guaranteed to be valid or correct.
Go to home page.
Go to station list.

Upstream stations:

Downstream station:
Previous Day
Next Day
Current Day
    
SHEF ID:       HRHO2     North Canadian River near Harrah
STATION TYPE:  

                STAGE  RIV-FLOW  WTR-TEMP   DIS-OXY        PH   CONDUCT  BAT-LOAD
                   ft       cfs         F      mg/l        su   umho/cm      volt
              Ccp-Rev   Ccp-Rev   Ccp-Rev   Ccp-Rev   Ccp-Rev   Ccp-Rev   Ccp-Rev
(US/Central)
12/07 00:00      4.51       101     45.45      7.69      7.58      1111     12.54
12/07 01:00      4.51       101     45.01      7.29      7.56      1110     12.54
12/07 02:00      4.52       103     44.44      7.54      7.56      1111     12.54
12/07 03:00      4.54       106     44.04      7.51      7.56      1111     12.48
12/07 04:00      4.56       110     43.72      7.59      7.56      1115     12.48
12/07 05:00      4.55       108     43.16      7.68      7.55      1122     12.48
12/07 06:00      4.56       110     42.31      7.86      7.57      1129     12.42
12/07 07:00      4.56       110     41.56      7.83      7.55      1128     12.42
12/07 08:00      4.58       113     40.95      7.87      7.53      1121     12.36
12/07 09:00      4.57       111     40.69      8.26      7.55      1115     12.54
12/07 10:00      4.61       118     40.82      8.39      7.52      1108     12.65
12/07 11:00      4.59       115     41.59      8.48      7.54      1101     13.36
12/07 12:00      4.61       118     42.55      8.46      7.53      1096     13.94
12/07 13:00      4.55       108     43.59      8.44      7.56      1097     13.88
12/07 14:00      4.53       105     44.60      8.62      7.60      1093     13.71
12/07 15:00      4.53       105     45.14      8.72      7.61      1092     13.53
12/07 16:00      4.49        98     45.03      8.68      7.62      1092     13.42
12/07 17:00      4.50       100     44.40      8.85      7.62      1094     13.30
12/07 18:00      4.49        98     43.74      8.75      7.56      1096     12.95
12/07 19:00      4.47        95     43.12      8.47      7.56      1098     12.65
12/07 20:00      4.44        91     42.48      8.23      7.51      1098     12.60
12/07 21:00      4.43        89     41.90      8.44      7.54      1099     12.60
12/07 22:00      4.44        91     41.34      8.32      7.51      1099     12.54
12/07 23:00      4.46        94     40.82      8.38      7.51      1099     12.54